Time;durP1;ratioP1;P1;durP2;ratioP2;P2;SDS_P1;SDS_P2;PMS_P1;PMS_P2;Temp;Humidity;BMP_temperature;BMP_pressure;BME280_temperature;BME280_humidity;BME280_pressure;Samples;Min_cycle;Max_cycle;Signal;HPM_P1;HPM_P2
2023/05/13 00:01:40;;;;;;;2.47;0.30;;;;;;;11.31;100.00;100802.91;5049174;28;20024;-69
2023/05/13 00:04:07;;;;;;;3.70;0.52;;;;;;;11.43;100.00;100812.19;5048123;28;20513;-70
2023/05/13 00:06:33;;;;;;;2.97;0.40;;;;;;;11.53;100.00;100814.78;5055501;28;20120;-70
2023/05/13 00:08:59;;;;;;;3.63;0.57;;;;;;;11.61;100.00;100802.66;5047517;28;20124;-69
2023/05/13 00:11:24;;;;;;;3.65;0.60;;;;;;;11.64;100.00;100799.75;5046085;28;20120;-68
2023/05/13 00:13:50;;;;;;;1.65;0.68;;;;;;;11.68;100.00;100812.53;5046572;28;20029;-71
2023/05/13 00:16:15;;;;;;;2.85;0.80;;;;;;;11.73;100.00;100810.31;5047155;28;20371;-70
2023/05/13 00:18:41;;;;;;;2.78;0.50;;;;;;;11.76;100.00;100810.84;5047920;28;20475;-70
2023/05/13 00:21:06;;;;;;;1.80;0.68;;;;;;;11.77;100.00;100815.13;5034705;28;20033;-71
2023/05/13 00:23:32;;;;;;;4.18;0.50;;;;;;;11.73;100.00;100812.91;5042825;28;20488;-70
2023/05/13 00:25:59;;;;;;;4.10;0.60;;;;;;;11.67;100.00;100810.88;5045028;28;20496;-68
2023/05/13 00:28:24;;;;;;;5.00;0.80;;;;;;;11.64;100.00;100817.22;5044556;28;20039;-68
2023/05/13 00:30:49;;;;;;;2.45;0.60;;;;;;;11.63;100.00;100820.78;5051883;28;20029;-68
2023/05/13 00:33:15;;;;;;;3.30;0.50;;;;;;;11.48;100.00;100825.63;5053166;28;20056;-69
2023/05/13 00:35:41;;;;;;;1.23;0.57;;;;;;;11.41;100.00;100821.09;5047777;28;20454;-68
2023/05/13 00:38:09;;;;;;;1.50;0.38;;;;;;;11.37;100.00;100820.56;5044578;28;20036;-68
2023/05/13 00:40:38;;;;;;;3.33;0.40;;;;;;;11.34;100.00;100823.50;5044700;28;20059;-68
2023/05/13 00:43:05;;;;;;;2.25;0.40;;;;;;;11.34;100.00;100818.28;5054596;28;20032;-67
2023/05/13 00:45:30;;;;;;;1.33;0.30;;;;;;;11.21;100.00;100815.94;5049066;28;20037;-68
2023/05/13 00:47:56;;;;;;;2.25;0.30;;;;;;;11.17;100.00;100809.38;5049436;28;20033;-68
2023/05/13 00:50:22;;;;;;;1.65;0.38;;;;;;;11.17;100.00;100806.75;5051596;28;20036;-69
2023/05/13 00:52:49;;;;;;;1.42;0.57;;;;;;;11.17;100.00;100811.16;5046808;28;20041;-68
2023/05/13 00:55:15;;;;;;;2.65;0.50;;;;;;;11.16;100.00;100797.28;5045107;28;20033;-69
2023/05/13 00:57:41;;;;;;;2.63;0.50;;;;;;;11.16;100.00;100799.91;5052781;28;20082;-69
2023/05/13 01:00:08;;;;;;;2.85;0.70;;;;;;;11.16;100.00;100799.06;5040807;28;20022;-68
2023/05/13 01:02:56;;;;;;;1.75;0.65;;;;;;;11.13;100.00;100796.75;5041321;28;20033;-69
2023/05/13 01:05:37;;;;;;;1.50;0.32;;;;;;;11.13;100.00;100799.34;5041411;28;20029;-69
2023/05/13 01:08:08;;;;;;;1.20;0.30;;;;;;;11.11;100.00;100796.88;5034866;28;20493;-68
2023/05/13 01:10:49;;;;;;;0.65;0.17;;;;;;;11.11;100.00;100796.06;5045370;28;20493;-69
2023/05/13 01:13:22;;;;;;;2.30;0.20;;;;;;;11.11;100.00;100790.84;5051304;28;20132;-69
2023/05/13 01:15:55;;;;;;;5.85;0.30;;;;;;;11.10;100.00;100797.84;5051279;28;20060;-69
2023/05/13 01:18:51;;;;;;;1.52;0.20;;;;;;;11.04;100.00;100794.97;5050103;28;20029;-69
2023/05/13 01:21:23;;;;;;;3.65;0.20;;;;;;;11.01;100.00;100796.06;5046501;28;20068;-69
2023/05/13 01:23:49;;;;;;;0.90;0.20;;;;;;;11.01;100.00;100790.03;5037001;28;20390;-69
2023/05/13 01:26:14;;;;;;;3.45;0.38;;;;;;;11.06;100.00;100790.44;5049708;28;20036;-68
2023/05/13 01:28:40;;;;;;;0.82;0.10;;;;;;;11.05;100.00;100792.22;5040975;28;20037;-69
2023/05/13 01:31:09;;;;;;;1.92;0.20;;;;;;;11.08;100.00;100791.94;5044335;28;20136;-69
2023/05/13 01:33:35;;;;;;;5.60;0.30;;;;;;;11.06;100.00;100787.84;5041418;28;20119;-68
2023/05/13 01:36:02;;;;;;;2.33;0.20;;;;;;;11.06;100.00;100790.44;5047072;28;20032;-69
2023/05/13 01:38:28;;;;;;;0.80;0.17;;;;;;;10.98;100.00;100791.97;5049349;28;20064;-68
2023/05/13 01:40:55;;;;;;;0.93;0.20;;;;;;;10.97;100.00;100787.72;5065041;28;20078;-69
2023/05/13 01:43:20;;;;;;;0.73;0.40;;;;;;;10.96;100.00;100783.44;5050082;28;20043;-68
2023/05/13 01:45:46;;;;;;;1.83;0.50;;;;;;;11.02;100.00;100791.69;5050374;28;20033;-69
2023/05/13 01:48:11;;;;;;;3.03;0.70;;;;;;;11.05;100.00;100783.59;5037025;28;20033;-69
2023/05/13 01:50:37;;;;;;;1.25;0.47;;;;;;;11.03;100.00;100782.91;5051438;28;20059;-69
2023/05/13 01:53:03;;;;;;;2.05;0.52;;;;;;;11.06;100.00;100780.84;5046824;28;20064;-69
2023/05/13 01:55:28;;;;;;;0.90;0.40;;;;;;;11.01;100.00;100780.44;5049033;28;20033;-68
2023/05/13 01:57:54;;;;;;;2.65;0.40;;;;;;;11.04;100.00;100784.53;5047154;28;20032;-69
2023/05/13 02:00:19;;;;;;;1.65;0.30;;;;;;;11.09;100.00;100782.34;5047242;28;20044;-69
2023/05/13 02:02:45;;;;;;;3.15;0.30;;;;;;;11.04;100.00;100779.31;5043109;28;20071;-69
2023/05/13 02:05:11;;;;;;;0.80;0.45;;;;;;;11.12;100.00;100787.28;5047697;28;20108;-68
2023/05/13 02:07:36;;;;;;;1.98;0.40;;;;;;;11.15;100.00;100779.19;5046972;28;20036;-68
2023/05/13 02:10:02;;;;;;;1.00;0.20;;;;;;;11.01;100.00;100777.81;5043993;28;20059;-68
2023/05/13 02:12:27;;;;;;;1.13;0.32;;;;;;;10.98;100.00;100780.72;5053037;28;20106;-68
2023/05/13 02:14:54;;;;;;;1.55;0.28;;;;;;;10.94;100.00;100774.94;5050990;28;20025;-68
2023/05/13 02:17:19;;;;;;;0.65;0.10;;;;;;;10.93;100.00;100773.31;5047188;28;20036;-67
2023/05/13 02:19:45;;;;;;;0.93;0.20;;;;;;;10.95;100.00;100776.59;5053376;28;20039;-67
2023/05/13 02:22:10;;;;;;;3.50;0.20;;;;;;;10.97;100.00;100774.66;5055390;28;20040;-68
2023/05/13 02:24:38;;;;;;;1.80;0.30;;;;;;;10.98;100.00;100773.72;5065060;28;20507;-68
2023/05/13 02:27:04;;;;;;;1.23;0.30;;;;;;;10.97;100.00;100782.50;5043476;28;20025;-68
2023/05/13 02:29:30;;;;;;;0.32;0.10;;;;;;;10.92;100.00;100774.25;5045407;28;20044;-68
2023/05/13 02:31:55;;;;;;;2.35;0.20;;;;;;;10.93;100.00;100775.09;5055131;28;20505;-69
2023/05/13 02:34:21;;;;;;;2.28;0.20;;;;;;;10.97;100.00;100771.25;5049004;28;20028;-68
2023/05/13 02:36:47;;;;;;;3.55;0.50;;;;;;;11.00;100.00;100768.34;5049176;28;20025;-67
2023/05/13 02:39:13;;;;;;;2.95;0.57;;;;;;;11.02;100.00;100770.81;5045734;28;20410;-68
2023/05/13 02:41:38;;;;;;;1.20;0.30;;;;;;;11.02;100.00;100768.22;5046324;28;20028;-67
2023/05/13 02:44:04;;;;;;;1.30;0.30;;;;;;;11.04;100.00;100768.91;5044473;28;20032;-68
2023/05/13 02:46:30;;;;;;;2.78;0.40;;;;;;;11.07;100.00;100766.00;5049427;28;20471;-68
2023/05/13 02:48:56;;;;;;;1.05;0.30;;;;;;;11.11;100.00;100765.59;5050316;28;20086;-68
2023/05/13 02:51:21;;;;;;;0.70;0.40;;;;;;;11.13;100.00;100766.28;5046825;28;20072;-67
2023/05/13 02:53:47;;;;;;;2.00;0.43;;;;;;;11.15;100.00;100768.75;5046423;28;20064;-68
2023/05/13 02:56:15;;;;;;;1.58;0.52;;;;;;;11.15;100.00;100758.31;5052666;28;20466;-67
2023/05/13 02:58:40;;;;;;;2.42;0.40;;;;;;;11.13;100.00;100768.88;5046428;28;20044;-68
2023/05/13 03:01:06;;;;;;;1.40;0.45;;;;;;;11.11;100.00;100767.38;5035336;28;20029;-68
2023/05/13 03:03:31;;;;;;;2.97;0.40;;;;;;;11.12;100.00;100771.63;5045637;28;20120;-68
2023/05/13 03:05:57;;;;;;;2.08;0.43;;;;;;;11.18;100.00;100763.25;5045927;28;20082;-68
2023/05/13 03:08:22;;;;;;;3.38;0.50;;;;;;;11.19;100.00;100764.91;5045351;28;20033;-68
2023/05/13 03:10:48;;;;;;;2.20;0.40;;;;;;;11.13;100.00;100768.06;5046817;28;20036;-68
2023/05/13 03:13:13;;;;;;;1.70;0.30;;;;;;;11.10;100.00;100765.72;5038428;28;20037;-68
2023/05/13 03:15:39;;;;;;;2.05;0.50;;;;;;;11.09;100.00;100764.91;5047916;28;20466;-68
2023/05/13 03:18:04;;;;;;;2.30;0.50;;;;;;;11.09;100.00;100762.31;5042416;28;20040;-68
2023/05/13 03:20:30;;;;;;;2.88;0.40;;;;;;;11.08;100.00;100765.06;5046484;28;20118;-68
2023/05/13 03:22:55;;;;;;;2.38;0.98;;;;;;;11.10;100.00;100763.13;5049569;28;20029;-68
2023/05/13 03:25:21;;;;;;;4.85;0.65;;;;;;;11.14;100.00;100751.44;5047658;28;20480;-68
2023/05/13 03:27:46;;;;;;;2.38;0.43;;;;;;;11.12;100.00;100756.81;5048469;28;20021;-68
2023/05/13 03:30:13;;;;;;;2.08;0.40;;;;;;;11.12;100.00;100767.25;5048846;28;20029;-69
2023/05/13 03:32:38;;;;;;;2.92;0.47;;;;;;;11.18;100.00;100760.63;5045340;28;20051;-69
2023/05/13 03:35:04;;;;;;;1.38;0.40;;;;;;;11.17;100.00;100759.00;5050186;28;20025;-69
2023/05/13 03:37:30;;;;;;;2.85;0.40;;;;;;;11.19;100.00;100754.47;5045672;28;20037;-68
2023/05/13 03:39:55;;;;;;;2.83;0.47;;;;;;;11.27;100.00;100754.59;5044473;28;20091;-69
2023/05/13 03:42:22;;;;;;;4.00;0.60;;;;;;;11.33;100.00;100759.22;5042870;28;20037;-69
2023/05/13 03:44:48;;;;;;;3.42;0.50;;;;;;;11.33;100.00;100754.03;5038978;28;20025;-69
2023/05/13 03:47:13;;;;;;;3.97;0.40;;;;;;;11.33;100.00;100754.03;5042707;28;20095;-69
2023/05/13 03:49:39;;;;;;;2.95;0.40;;;;;;;11.30;100.00;100757.72;5046074;28;20025;-68
2023/05/13 03:52:06;;;;;;;3.60;0.28;;;;;;;11.15;100.00;100746.09;5048044;28;20449;-68
2023/05/13 03:54:33;;;;;;;3.65;0.40;;;;;;;11.20;100.00;100749.09;5048021;28;20080;-68
2023/05/13 03:56:58;;;;;;;2.50;0.30;;;;;;;11.22;100.00;100751.56;5042702;28;20025;-68
2023/05/13 03:59:23;;;;;;;1.33;0.20;;;;;;;11.16;100.00;100754.75;5040550;28;20032;-68
2023/05/13 04:01:49;;;;;;;2.45;0.28;;;;;;;11.14;100.00;100754.88;5043767;28;20049;-67
2023/05/13 04:04:14;;;;;;;1.00;0.28;;;;;;;11.11;100.00;100762.16;5046172;28;20036;-67
2023/05/13 04:06:40;;;;;;;2.90;0.30;;;;;;;11.07;100.00;100766.00;5040268;28;20099;-67
2023/05/13 04:09:05;;;;;;;2.17;0.30;;;;;;;11.10;100.00;100765.72;5042519;28;20086;-67
2023/05/13 04:11:31;;;;;;;2.22;0.45;;;;;;;11.16;100.00;100767.78;5046985;28;20064;-67
2023/05/13 04:13:57;;;;;;;2.28;0.32;;;;;;;11.14;100.00;100769.72;5047227;28;20072;-68
2023/05/13 04:16:22;;;;;;;2.15;0.40;;;;;;;11.12;100.00;100767.25;5050776;28;20037;-68
2023/05/13 04:18:48;;;;;;;1.58;0.40;;;;;;;11.11;100.00;100768.19;5050388;28;20111;-68
2023/05/13 04:21:13;;;;;;;2.08;0.40;;;;;;;11.14;100.00;100769.72;5049689;28;20055;-68
2023/05/13 04:23:39;;;;;;;5.47;0.60;;;;;;;11.16;100.00;100779.03;5055982;28;20036;-69
2023/05/13 04:26:04;;;;;;;1.80;0.32;;;;;;;11.20;100.00;100776.97;5046564;28;20517;-69
2023/05/13 04:28:30;;;;;;;1.70;0.30;;;;;;;11.15;100.00;100781.78;5050029;28;20155;-69
2023/05/13 04:30:56;;;;;;;2.15;0.35;;;;;;;11.13;100.00;100783.72;5052700;28;20025;-68
2023/05/13 04:33:21;;;;;;;3.17;0.32;;;;;;;11.13;100.00;100778.50;5048423;28;20045;-68
2023/05/13 04:35:47;;;;;;;2.00;0.35;;;;;;;11.20;100.00;100779.59;5046413;28;20033;-69
2023/05/13 04:38:12;;;;;;;1.08;0.30;;;;;;;11.18;100.00;100777.13;5041364;28;20041;-68
2023/05/13 04:40:38;;;;;;;1.73;0.20;;;;;;;11.19;100.00;100789.19;5048408;28;20090;-68
2023/05/13 04:43:03;;;;;;;3.17;0.20;;;;;;;11.21;100.00;100784.66;5048863;28;20524;-68
2023/05/13 04:45:30;;;;;;;1.02;0.50;;;;;;;11.27;100.00;100791.09;5044940;28;20021;-68
2023/05/13 04:47:56;;;;;;;1.90;0.20;;;;;;;11.39;100.00;100795.16;5047667;28;20021;-68
2023/05/13 04:50:22;;;;;;;2.88;0.30;;;;;;;11.49;100.00;100798.56;5048504;28;20063;-68
2023/05/13 04:52:47;;;;;;;1.33;0.40;;;;;;;11.57;100.00;100809.13;5050154;28;21403;-68
2023/05/13 04:55:13;;;;;;;1.35;0.40;;;;;;;11.60;100.00;100806.22;5049458;28;20441;-68
2023/05/13 04:57:38;;;;;;;3.30;0.60;;;;;;;11.63;100.00;100805.94;5052946;28;20410;-68
2023/05/13 05:00:04;;;;;;;9.55;1.08;;;;;;;11.57;100.00;100803.09;5051297;28;20144;-68
2023/05/13 05:02:30;;;;;;;0.90;0.30;;;;;;;11.51;100.00;100803.66;5051124;28;20053;-68
2023/05/13 05:04:56;;;;;;;2.55;0.50;;;;;;;11.43;100.00;100814.78;5053643;28;20029;-68
2023/05/13 05:07:21;;;;;;;2.20;1.00;;;;;;;11.47;100.00;100818.75;5048247;28;20367;-68
2023/05/13 05:09:47;;;;;;;2.53;0.52;;;;;;;11.50;100.00;100813.25;5046355;28;20033;-69
2023/05/13 05:12:13;;;;;;;2.45;0.50;;;;;;;11.58;100.00;100815.16;5044992;28;20049;-68
2023/05/13 05:14:38;;;;;;;4.68;0.70;;;;;;;11.56;100.00;100827.53;5043972;28;20024;-68
2023/05/13 05:17:04;;;;;;;4.75;0.73;;;;;;;11.64;100.00;100820.66;5046861;28;20025;-68
2023/05/13 05:19:29;;;;;;;4.45;0.77;;;;;;;11.75;100.00;100822.25;5039289;28;20388;-69
2023/05/13 05:21:55;;;;;;;3.30;0.63;;;;;;;11.87;100.00;100821.13;5049674;28;20103;-69
2023/05/13 05:24:20;;;;;;;2.20;0.60;;;;;;;11.92;100.00;100818.06;5053920;28;20127;-69
2023/05/13 05:26:45;;;;;;;3.22;0.90;;;;;;;11.92;100.00;100818.06;5062400;28;20036;-69
2023/05/13 05:29:11;;;;;;;5.40;1.55;;;;;;;11.99;100.00;100821.75;5047808;28;20150;-68
2023/05/13 05:31:36;;;;;;;4.78;0.90;;;;;;;11.91;100.00;100821.66;5058480;28;20029;-68
2023/05/13 05:34:02;;;;;;;6.00;1.05;;;;;;;11.87;100.00;100820.28;5050621;28;20033;-68
2023/05/13 05:36:28;;;;;;;2.95;0.85;;;;;;;11.88;100.00;100822.75;5052244;28;20064;-68
2023/05/13 05:38:54;;;;;;;1.00;0.50;;;;;;;11.85;100.00;100824.84;5048187;28;20485;-68
2023/05/13 05:41:20;;;;;;;1.25;0.40;;;;;;;11.91;100.00;100829.47;5046318;28;20045;-69
2023/05/13 05:43:46;;;;;;;3.40;0.50;;;;;;;12.06;100.00;100833.28;5047924;28;20035;-68
2023/05/13 05:46:12;;;;;;;0.80;0.40;;;;;;;12.22;100.00;100837.88;5045406;28;20116;-68
2023/05/13 05:48:37;;;;;;;2.58;0.63;;;;;;;12.40;100.00;100828.25;5048933;28;20036;-68
2023/05/13 05:51:03;;;;;;;1.05;0.40;;;;;;;12.42;100.00;100828.09;5042203;28;20052;-68
2023/05/13 05:53:28;;;;;;;0.57;0.22;;;;;;;12.44;100.00;100829.59;5038268;28;21907;-68
2023/05/13 05:55:54;;;;;;;0.98;0.22;;;;;;;12.27;100.00;100833.03;5047537;28;20029;-68
2023/05/13 05:58:19;;;;;;;0.60;0.10;;;;;;;12.30;100.00;100830.91;5040274;28;20040;-68
2023/05/13 06:00:45;;;;;;;3.53;0.30;;;;;;;12.49;100.00;100829.16;5048249;28;20028;-68
2023/05/13 06:03:10;;;;;;;1.45;0.20;;;;;;;12.49;100.00;100837.81;5042920;28;20124;-68
2023/05/13 06:05:37;;;;;;;2.50;0.20;;;;;;;12.49;100.00;100839.63;5048095;28;20086;-68
2023/05/13 06:08:02;;;;;;;1.00;0.10;;;;;;;12.39;100.00;100836.25;5042837;28;20036;-68
2023/05/13 06:10:28;;;;;;;0.63;0.25;;;;;;;12.38;100.00;100838.03;5045867;28;20041;-70
2023/05/13 06:12:53;;;;;;;2.47;0.20;;;;;;;12.32;100.00;100836.00;5042621;28;20076;-70
2023/05/13 06:15:19;;;;;;;0.30;0.20;;;;;;;12.29;100.00;100847.56;5046579;28;20462;-70
2023/05/13 06:17:44;;;;;;;0.60;0.30;;;;;;;12.27;100.00;100844.31;5044909;28;20071;-69
2023/05/13 06:20:10;;;;;;;0.73;0.20;;;;;;;12.26;100.00;100847.06;5039640;28;20033;-70
2023/05/13 06:22:36;;;;;;;1.77;0.30;;;;;;;12.27;100.00;100839.06;5038346;28;20026;-70
2023/05/13 06:25:01;;;;;;;1.02;0.20;;;;;;;12.30;100.00;100835.31;5048346;28;20429;-70
2023/05/13 06:27:26;;;;;;;0.60;0.20;;;;;;;12.21;100.00;100839.66;5046928;28;20343;-70
2023/05/13 06:29:52;;;;;;;1.65;0.20;;;;;;;12.28;100.00;100834.69;5044710;28;20035;-70
2023/05/13 06:32:17;;;;;;;1.10;0.20;;;;;;;12.32;100.00;100835.19;5044992;28;20040;-70
2023/05/13 06:34:45;;;;;;;3.25;0.25;;;;;;;12.27;100.00;100838.25;5045411;28;20029;-70
2023/05/13 06:37:14;;;;;;;0.60;0.30;;;;;;;12.25;100.00;100846.25;5046785;28;20106;-70
2023/05/13 06:39:39;;;;;;;3.15;0.20;;;;;;;12.20;100.00;100845.84;5038383;28;20115;-70
2023/05/13 06:42:05;;;;;;;0.50;0.20;;;;;;;12.17;100.00;100848.75;5047946;28;20115;-69
2023/05/13 06:44:30;;;;;;;1.55;0.45;;;;;;;12.24;100.00;100854.22;5036093;28;20037;-70
2023/05/13 06:46:56;;;;;;;2.85;0.20;;;;;;;12.19;100.00;100856.44;5043335;28;20553;-69
2023/05/13 06:49:23;;;;;;;0.85;0.30;;;;;;;12.13;100.00;100849.19;5041676;28;20124;-70
2023/05/13 06:51:49;;;;;;;1.80;0.30;;;;;;;12.17;100.00;100853.16;5040431;28;20414;-69
2023/05/13 06:54:15;;;;;;;2.63;0.40;;;;;;;12.18;100.00;100854.81;5043160;28;20041;-69
2023/05/13 06:56:40;;;;;;;1.13;0.20;;;;;;;12.12;100.00;100852.75;5038523;28;20029;-70
2023/05/13 06:59:06;;;;;;;4.00;0.20;;;;;;;12.09;100.00;100856.50;5045078;28;20098;-69
2023/05/13 07:01:31;;;;;;;1.13;0.20;;;;;;;12.11;100.00;100857.16;5039356;28;20057;-70
2023/05/13 07:03:57;;;;;;;2.90;0.30;;;;;;;12.11;100.00;100864.19;5042787;28;20079;-70
2023/05/13 07:06:22;;;;;;;2.00;0.30;;;;;;;12.12;100.00;100858.00;5044599;28;20059;-70
2023/05/13 07:08:48;;;;;;;2.47;0.35;;;;;;;12.12;100.00;100864.03;5040293;28;20033;-70
2023/05/13 07:11:13;;;;;;;2.22;0.50;;;;;;;12.17;100.00;100864.44;5044432;28;20394;-71
2023/05/13 07:13:38;;;;;;;0.93;0.30;;;;;;;12.18;100.00;100868.69;5044863;28;20084;-70
2023/05/13 07:16:04;;;;;;;1.05;0.50;;;;;;;12.18;100.00;100866.06;5044284;28;20516;-71
2023/05/13 07:18:30;;;;;;;2.35;0.30;;;;;;;12.14;100.00;100869.13;5044981;28;20043;-70
2023/05/13 07:20:55;;;;;;;2.13;0.80;;;;;;;12.15;100.00;100870.75;5043766;28;20068;-70
2023/05/13 07:23:24;;;;;;;1.00;0.50;;;;;;;12.16;100.00;100873.22;5039728;28;20043;-70
2023/05/13 07:25:50;;;;;;;5.32;0.55;;;;;;;12.16;100.00;100873.22;5042021;28;20049;-70
2023/05/13 07:28:20;;;;;;;4.57;1.60;;;;;;;12.23;100.00;100874.31;5039770;28;20064;-70
2023/05/13 07:30:45;;;;;;;6.45;0.70;;;;;;;12.27;100.00;100874.84;5049183;28;20025;-71
2023/05/13 07:33:11;;;;;;;3.38;0.68;;;;;;;12.16;100.00;100873.22;5040393;28;20085;-71
2023/05/13 07:35:37;;;;;;;1.63;0.40;;;;;;;12.18;100.00;100873.09;5039213;28;20379;-71
2023/05/13 07:38:03;;;;;;;1.48;0.40;;;;;;;12.13;100.00;100873.50;5044529;28;20427;-70
2023/05/13 07:40:28;;;;;;;2.05;0.40;;;;;;;12.03;100.00;100872.72;5038881;28;20037;-71
2023/05/13 07:42:53;;;;;;;2.33;0.30;;;;;;;12.05;100.00;100870.81;5041326;28;20037;-70
2023/05/13 07:45:19;;;;;;;2.15;0.40;;;;;;;12.11;100.00;100875.44;5042885;28;20037;-71
2023/05/13 07:47:44;;;;;;;2.33;0.30;;;;;;;12.19;100.00;100872.94;5041858;28;20056;-70
2023/05/13 07:50:10;;;;;;;1.23;0.30;;;;;;;12.24;100.00;100873.34;5049523;28;20381;-71
2023/05/13 07:52:36;;;;;;;1.92;0.40;;;;;;;12.34;100.00;100870.66;5051380;28;20387;-71
2023/05/13 07:55:01;;;;;;;4.53;0.30;;;;;;;12.37;100.00;100865.13;5052243;28;20028;-71
2023/05/13 07:57:26;;;;;;;2.15;0.93;;;;;;;12.33;100.00;100873.41;5053361;28;20033;-71
2023/05/13 07:59:53;;;;;;;1.50;0.35;;;;;;;12.39;100.00;100872.81;5047917;28;20040;-71
2023/05/13 08:02:18;;;;;;;1.88;0.98;;;;;;;12.40;100.00;100877.09;5049969;28;20029;-70
2023/05/13 08:04:44;;;;;;;3.55;0.68;;;;;;;12.33;100.00;100878.63;5046737;28;20059;-70
2023/05/13 08:07:10;;;;;;;1.35;0.30;;;;;;;12.32;100.00;100877.81;5053291;28;20029;-71
2023/05/13 08:09:36;;;;;;;0.98;0.40;;;;;;;12.37;100.00;100874.75;5046046;28;20470;-76
2023/05/13 08:12:01;;;;;;;4.72;0.60;;;;;;;12.44;100.00;100881.03;5052469;28;20033;-70
2023/05/13 08:14:27;;;;;;;1.17;0.70;;;;;;;12.48;100.00;100882.41;5051592;28;20036;-70
2023/05/13 08:16:53;;;;;;;1.45;0.40;;;;;;;12.56;100.00;100880.69;5052904;28;20032;-70
2023/05/13 08:19:18;;;;;;;2.03;0.38;;;;;;;12.51;100.00;100879.50;5052761;28;20025;-70
2023/05/13 08:21:44;;;;;;;1.45;0.50;;;;;;;12.41;100.00;100886.56;5053454;28;20390;-70
2023/05/13 08:24:09;;;;;;;3.33;0.45;;;;;;;12.42;100.00;100885.59;5052054;28;20090;-71
2023/05/13 08:26:36;;;;;;;1.80;0.68;;;;;;;12.57;100.00;100874.50;5049213;28;20024;-71
2023/05/13 08:29:01;;;;;;;2.25;0.50;;;;;;;12.70;100.00;100882.00;5048442;28;20029;-71
2023/05/13 08:31:27;;;;;;;1.65;0.40;;;;;;;12.68;100.00;100883.13;5045141;28;20046;-71
2023/05/13 08:33:52;;;;;;;2.05;0.20;;;;;;;12.59;100.00;100882.19;5049838;28;20064;-70
2023/05/13 08:36:19;;;;;;;0.75;0.30;;;;;;;12.67;100.00;100882.28;5046786;28;20036;-72
2023/05/13 08:38:45;;;;;;;0.88;0.38;;;;;;;12.73;100.00;100886.94;5048754;28;20508;-72
2023/05/13 08:41:14;;;;;;;0.95;0.30;;;;;;;12.78;100.00;100886.47;5048680;28;20064;-71
2023/05/13 08:43:42;;;;;;;1.55;0.30;;;;;;;12.83;100.00;100881.59;5046177;28;20112;-71
2023/05/13 08:46:09;;;;;;;0.68;0.30;;;;;;;12.91;100.00;100885.13;5048049;28;20461;-71
2023/05/13 08:48:36;;;;;;;0.55;0.25;;;;;;;12.90;100.00;100886.09;5042831;28;20040;-70
2023/05/13 08:51:01;;;;;;;0.80;0.30;;;;;;;12.75;100.00;100885.00;5049089;28;20401;-71
2023/05/13 08:53:28;;;;;;;4.05;0.40;;;;;;;12.69;100.00;100890.81;5054257;28;20049;-71
2023/05/13 08:55:55;;;;;;;2.28;0.40;;;;;;;12.69;100.00;100889.97;5053073;28;20501;-71
2023/05/13 08:58:20;;;;;;;4.60;0.40;;;;;;;12.75;100.00;100886.78;5056605;28;20070;-71
2023/05/13 09:00:48;;;;;;;0.47;0.20;;;;;;;12.76;100.00;100891.03;5052807;28;20032;-70
2023/05/13 09:03:14;;;;;;;2.22;0.38;;;;;;;12.75;100.00;100890.22;5051258;28;20041;-70
2023/05/13 09:05:43;;;;;;;1.58;0.55;;;;;;;12.74;100.00;100895.59;5048571;28;20037;-69
2023/05/13 09:08:09;;;;;;;2.22;0.20;;;;;;;12.74;100.00;100893.81;5052130;28;20021;-70
2023/05/13 09:10:35;;;;;;;0.55;0.30;;;;;;;12.69;100.00;100895.22;5046470;28;20021;-70
2023/05/13 09:13:01;;;;;;;1.52;0.30;;;;;;;12.73;100.00;100897.38;5047887;28;20132;-70
2023/05/13 09:15:27;;;;;;;1.00;0.30;;;;;;;12.76;100.00;100897.06;5051657;28;20051;-70
2023/05/13 09:18:02;;;;;;;1.40;0.30;;;;;;;12.78;100.00;100908.19;5049821;28;20138;-71
2023/05/13 09:20:28;;;;;;;2.23;0.30;;;;;;;12.75;100.00;100897.25;5050285;28;20052;-70
2023/05/13 09:23:00;;;;;;;0.80;0.40;;;;;;;12.71;100.00;100895.88;5051968;28;20482;-70
2023/05/13 09:25:26;;;;;;;3.28;0.50;;;;;;;12.80;100.00;100903.66;5047815;28;20032;-69
2023/05/13 09:27:56;;;;;;;1.38;0.30;;;;;;;12.81;100.00;100904.47;5044759;28;20017;-69
2023/05/13 09:30:23;;;;;;;0.43;0.20;;;;;;;12.77;100.00;100909.16;5048719;28;20362;-70
2023/05/13 09:33:07;;;;;;;4.20;0.30;;;;;;;12.83;100.00;100903.34;5050812;28;20036;-69
2023/05/13 09:35:34;;;;;;;2.03;0.25;;;;;;;12.89;100.00;100902.75;5057335;28;20045;-70
2023/05/13 09:38:00;;;;;;;0.55;0.25;;;;;;;12.96;100.00;100903.81;5063492;28;20021;-70
2023/05/13 09:40:25;;;;;;;1.45;0.30;;;;;;;12.99;100.00;100897.47;5051338;28;20033;-70
2023/05/13 09:42:55;;;;;;;0.50;0.40;;;;;;;12.99;100.00;100901.88;5052031;28;20062;-69
2023/05/13 09:45:22;;;;;;;1.10;0.30;;;;;;;12.93;100.00;100898.88;5051547;28;20040;-70
2023/05/13 09:47:53;;;;;;;2.17;0.28;;;;;;;12.88;100.00;100892.44;5058923;28;20047;-69
2023/05/13 09:50:19;;;;;;;1.23;0.20;;;;;;;12.82;100.00;100890.41;5049003;28;20029;-69
2023/05/13 09:52:44;;;;;;;0.50;0.20;;;;;;;12.63;100.00;100889.59;5046700;28;20159;-69
2023/05/13 09:55:10;;;;;;;2.33;0.20;;;;;;;12.59;100.00;100885.63;5044775;28;20025;-69
2023/05/13 09:57:36;;;;;;;2.00;0.20;;;;;;;12.50;100.00;100886.50;5050522;28;20588;-68
2023/05/13 10:00:08;;;;;;;1.30;0.30;;;;;;;12.51;100.00;100898.63;5049678;28;20036;-69
2023/05/13 10:02:34;;;;;;;0.77;0.20;;;;;;;12.47;100.00;100896.44;5049680;28;20044;-69
2023/05/13 10:05:00;;;;;;;1.13;0.20;;;;;;;12.45;100.00;100893.97;5048850;28;20110;-68
2023/05/13 10:07:26;;;;;;;1.33;0.40;;;;;;;12.51;100.00;100890.78;5045113;28;20053;-69
2023/05/13 10:09:55;;;;;;;1.58;0.60;;;;;;;12.62;100.00;100879.28;5047673;28;20056;-68
2023/05/13 10:12:23;;;;;;;2.40;0.95;;;;;;;12.73;100.00;100880.88;5051749;28;20041;-69
2023/05/13 10:14:53;;;;;;;3.42;0.88;;;;;;;12.81;100.00;100886.16;5051130;28;20035;-69
2023/05/13 10:17:24;;;;;;;1.40;0.80;;;;;;;12.73;100.00;100881.69;5057817;28;20134;-68
2023/05/13 10:19:53;;;;;;;1.55;0.95;;;;;;;12.81;100.00;100875.69;5050901;28;20025;-69
2023/05/13 10:22:31;;;;;;;3.75;0.90;;;;;;;12.90;100.00;100880.88;5045985;28;20047;-69
2023/05/13 10:24:58;;;;;;;1.60;0.75;;;;;;;12.96;100.00;100882.88;5050561;28;20367;-69
2023/05/13 10:27:28;;;;;;;3.85;0.90;;;;;;;13.03;100.00;100882.28;5061584;28;20029;-69
2023/05/13 10:29:58;;;;;;;2.50;0.60;;;;;;;13.12;100.00;100881.41;5055647;28;20033;-69
2023/05/13 10:32:25;;;;;;;1.23;0.70;;;;;;;13.17;100.00;100874.78;5058216;28;20036;-70
2023/05/13 10:35:14;;;;;;;2.13;0.63;;;;;;;13.18;100.00;100870.34;5053863;28;20057;-70
2023/05/13 10:38:16;;;;;;;2.97;0.50;;;;;;;13.12;100.00;100866.53;5044176;28;20045;-69
2023/05/13 10:41:13;;;;;;;1.23;0.40;;;;;;;13.17;100.00;100866.91;5006076;28;20033;-70
2023/05/13 10:43:39;;;;;;;2.08;0.82;;;;;;;13.29;100.00;100865.69;5001574;28;20483;-69
2023/05/13 10:46:11;;;;;;;2.30;0.52;;;;;;;13.40;100.00;100853.34;5010690;28;20060;-69
2023/05/13 10:48:53;;;;;;;2.70;0.60;;;;;;;13.45;100.00;100857.13;5005359;28;20037;-69
2023/05/13 10:51:23;;;;;;;0.80;0.40;;;;;;;13.71;100.00;100858.91;5006000;28;20058;-68
2023/05/13 10:53:51;;;;;;;0.98;0.40;;;;;;;13.93;100.00;100859.22;5007685;28;20050;-69
2023/05/13 10:56:23;;;;;;;2.80;0.40;;;;;;;14.21;100.00;100858.97;5005038;28;20052;-69
2023/05/13 10:59:03;;;;;;;1.95;0.32;;;;;;;14.07;100.00;100851.75;5006513;28;20048;-69
2023/05/13 11:01:32;;;;;;;0.82;0.20;;;;;;;14.04;100.00;100857.28;5007254;28;20137;-69
2023/05/13 11:04:03;;;;;;;0.70;0.40;;;;;;;14.22;100.00;100853.56;5008199;28;20423;-69
2023/05/13 11:06:33;;;;;;;1.77;0.30;;;;;;;14.16;100.00;100849.00;5005297;28;20053;-70
2023/05/13 11:08:58;;;;;;;0.43;0.20;;;;;;;14.13;100.00;100846.69;4988683;28;20411;-69
2023/05/13 11:11:28;;;;;;;1.00;0.40;;;;;;;14.29;100.00;100854.59;5009423;28;20056;-70
2023/05/13 11:14:02;;;;;;;1.40;0.50;;;;;;;14.65;100.00;100850.97;5000360;28;20411;-69
2023/05/13 11:16:27;;;;;;;2.03;0.22;;;;;;;14.45;100.00;100850.41;5009336;28;20041;-69